Time;durP1;ratioP1;P1;durP2;ratioP2;P2;SDS_P1;SDS_P2;PMS_P1;PMS_P2;Temp;Humidity;BMP_temperature;BMP_pressure;BME280_temperature;BME280_humidity;BME280_pressure;Samples;Min_cycle;Max_cycle;Signal;HPM_P1;HPM_P2
2022/04/08 00:02:02;;;;;;;3.10;1.58;;;;;;;;;;5014494;28;20101;-63
2022/04/08 00:04:28;;;;;;;3.17;1.60;;;;;;;;;;5014341;28;20087;-63
2022/04/08 00:06:53;;;;;;;2.88;1.48;;;;;;;;;;5014326;28;20033;-63
2022/04/08 00:09:19;;;;;;;4.25;1.98;;;;;;;;;;5014270;28;20038;-62
2022/04/08 00:11:45;;;;;;;4.07;1.90;;;;;;;;;;5014083;28;20030;-63
2022/04/08 00:14:11;;;;;;;3.40;1.80;;;;;;;;;;5014224;28;20108;-62
2022/04/08 00:16:38;;;;;;;2.50;1.30;;;;;;;;;;5014072;28;20036;-62
2022/04/08 00:19:03;;;;;;;5.53;1.75;;;;;;;;;;5019396;28;20474;-63
2022/04/08 00:21:29;;;;;;;4.35;1.58;;;;;;;;;;5033978;28;20087;-63
2022/04/08 00:23:54;;;;;;;3.15;1.58;;;;;;;;;;5034002;28;20477;-63
2022/04/08 00:26:20;;;;;;;5.25;1.50;;;;;;;;;;5033631;28;20071;-62
2022/04/08 00:28:50;;;;;;;4.03;1.60;;;;;;;;;;5033750;28;20079;-62
2022/04/08 00:31:16;;;;;;;1.05;0.80;;;;;;;;;;5033863;28;20029;-62
2022/04/08 00:33:41;;;;;;;3.08;1.30;;;;;;;;;;5033642;28;20048;-62
2022/04/08 00:36:07;;;;;;;2.70;1.30;;;;;;;;;;5033771;28;20108;-62
2022/04/08 00:38:32;;;;;;;6.05;1.25;;;;;;;;;;5033508;28;20030;-62
2022/04/08 00:40:59;;;;;;;2.72;1.35;;;;;;;;;;5033266;28;20036;-62
2022/04/08 00:43:38;;;;;;;2.83;1.38;;;;;;;;;;5033625;28;20026;-62
2022/04/08 00:46:09;;;;;;;2.33;1.40;;;;;;;;;;5033459;28;20034;-63
2022/04/08 00:48:36;;;;;;;4.03;1.50;;;;;;;;;;5033544;28;20045;-62
2022/04/08 00:51:04;;;;;;;3.15;1.40;;;;;;;;;;5033279;28;20067;-62
2022/04/08 00:53:31;;;;;;;3.03;1.65;;;;;;;;;;5033353;28;20030;-63
2022/04/08 00:55:57;;;;;;;3.58;1.65;;;;;;;;;;5033253;28;20459;-62
2022/04/08 00:58:23;;;;;;;3.38;1.80;;;;;;;;;;5032650;28;20030;-62
2022/04/08 01:00:49;;;;;;;4.22;1.90;;;;;;;;;;5033187;28;20192;-63
2022/04/08 01:03:15;;;;;;;3.10;2.05;;;;;;;;;;5033225;28;20133;-62
2022/04/08 01:05:41;;;;;;;4.10;1.48;;;;;;;;;;5031766;28;20040;-62
2022/04/08 01:08:09;;;;;;;3.67;1.45;;;;;;;;;;5033058;28;20033;-62
2022/04/08 01:10:35;;;;;;;2.15;1.50;;;;;;;;;;5032982;28;20032;-62
2022/04/08 01:13:01;;;;;;;4.97;1.70;;;;;;;;;;5033034;28;20022;-63
2022/04/08 01:15:27;;;;;;;2.58;1.60;;;;;;;;;;5033172;28;20037;-63
2022/04/08 01:17:53;;;;;;;3.35;1.10;;;;;;;;;;5033060;28;20505;-63
2022/04/08 01:20:18;;;;;;;7.85;1.50;;;;;;;;;;5032576;28;20050;-62
2022/04/08 01:22:44;;;;;;;3.75;1.60;;;;;;;;;;5033075;28;20029;-62
2022/04/08 01:25:11;;;;;;;1.92;1.33;;;;;;;;;;5032679;28;20092;-62
2022/04/08 01:27:38;;;;;;;2.90;1.67;;;;;;;;;;5032936;28;20030;-62
2022/04/08 01:30:05;;;;;;;2.78;1.40;;;;;;;;;;5032841;28;20025;-62
2022/04/08 01:32:31;;;;;;;1.90;1.30;;;;;;;;;;5031566;28;20126;-62
2022/04/08 01:34:56;;;;;;;4.00;1.58;;;;;;;;;;5032819;28;20067;-63
2022/04/08 01:37:22;;;;;;;1.23;1.05;;;;;;;;;;5032980;28;20025;-62
2022/04/08 01:39:48;;;;;;;2.45;1.23;;;;;;;;;;5032588;28;20029;-62
2022/04/08 01:42:14;;;;;;;3.90;1.27;;;;;;;;;;5032751;28;20025;-62
2022/04/08 01:44:40;;;;;;;1.98;1.20;;;;;;;;;;5032707;28;20036;-62
2022/04/08 01:47:06;;;;;;;2.08;1.20;;;;;;;;;;5032654;28;20033;-62
2022/04/08 01:49:31;;;;;;;3.80;1.23;;;;;;;;;;5032792;28;20109;-63
2022/04/08 01:51:57;;;;;;;3.13;1.77;;;;;;;;;;5031410;28;20494;-63
2022/04/08 01:54:23;;;;;;;2.97;1.50;;;;;;;;;;5032467;28;20067;-63
2022/04/08 01:56:49;;;;;;;3.42;1.33;;;;;;;;;;5032639;28;20026;-63
2022/04/08 01:59:15;;;;;;;2.80;1.50;;;;;;;;;;5032463;28;20026;-62
2022/04/08 02:01:40;;;;;;;2.70;1.40;;;;;;;;;;5032571;28;20445;-62
2022/04/08 02:04:06;;;;;;;4.50;1.98;;;;;;;;;;5032580;28;20025;-63
2022/04/08 02:06:32;;;;;;;3.20;2.05;;;;;;;;;;5032267;28;20474;-63
2022/04/08 02:08:58;;;;;;;3.85;1.65;;;;;;;;;;5032631;28;20057;-63
2022/04/08 02:11:24;;;;;;;3.63;1.45;;;;;;;;;;5036635;28;20403;-63
2022/04/08 02:13:50;;;;;;;2.15;1.30;;;;;;;;;;5035113;28;20060;-63
2022/04/08 02:16:15;;;;;;;2.50;1.50;;;;;;;;;;5036342;28;20059;-62
2022/04/08 02:18:42;;;;;;;2.10;1.50;;;;;;;;;;5034714;28;20029;-62
2022/04/08 02:21:09;;;;;;;4.10;1.38;;;;;;;;;;5036045;28;20017;-62
2022/04/08 02:23:35;;;;;;;3.58;1.85;;;;;;;;;;5036194;28;20029;-62
2022/04/08 02:26:01;;;;;;;3.08;1.55;;;;;;;;;;5036063;28;20025;-62
2022/04/08 02:28:26;;;;;;;8.52;6.22;;;;;;;;;;5036059;28;20048;-62
2022/04/08 02:30:53;;;;;;;5.45;2.05;;;;;;;;;;5035917;28;20030;-62
2022/04/08 02:33:19;;;;;;;5.43;2.10;;;;;;;;;;5035800;28;20018;-62
2022/04/08 02:35:45;;;;;;;3.88;1.80;;;;;;;;;;5035658;28;20021;-62
2022/04/08 02:38:11;;;;;;;2.97;1.65;;;;;;;;;;5035947;28;20027;-62
2022/04/08 02:40:37;;;;;;;3.88;1.80;;;;;;;;;;5035841;28;20029;-62
2022/04/08 02:43:03;;;;;;;8.40;2.35;;;;;;;;;;5035807;28;20036;-61
2022/04/08 02:45:29;;;;;;;6.68;2.08;;;;;;;;;;5035840;28;20386;-62
2022/04/08 02:47:54;;;;;;;3.65;1.75;;;;;;;;;;5035815;28;20033;-62
2022/04/08 02:50:20;;;;;;;5.50;1.58;;;;;;;;;;5035405;28;20029;-61
2022/04/08 02:52:45;;;;;;;4.03;1.90;;;;;;;;;;5035635;28;20030;-62
2022/04/08 02:55:11;;;;;;;6.20;1.85;;;;;;;;;;5035511;28;20394;-62
2022/04/08 02:57:44;;;;;;;4.93;1.83;;;;;;;;;;5035528;28;20037;-61
2022/04/08 03:00:11;;;;;;;3.15;1.30;;;;;;;;;;5035399;28;20426;-62
2022/04/08 03:02:36;;;;;;;3.63;1.30;;;;;;;;;;5035397;28;20072;-62
2022/04/08 03:05:06;;;;;;;1.83;1.17;;;;;;;;;;5035043;28;20451;-62
2022/04/08 03:07:32;;;;;;;4.10;2.30;;;;;;;;;;5035302;28;20021;-62
2022/04/08 03:09:58;;;;;;;13.52;3.78;;;;;;;;;;5035345;28;20596;-61
2022/04/08 03:12:24;;;;;;;4.13;1.40;;;;;;;;;;5035217;28;20026;-62
2022/04/08 03:14:49;;;;;;;2.13;1.13;;;;;;;;;;5035365;28;20534;-62
2022/04/08 03:17:15;;;;;;;2.13;1.08;;;;;;;;;;5035221;28;20026;-61
2022/04/08 03:19:40;;;;;;;3.92;1.52;;;;;;;;;;5034271;28;20045;-62
2022/04/08 03:22:08;;;;;;;3.83;1.40;;;;;;;;;;5034873;28;20379;-62
2022/04/08 03:24:34;;;;;;;2.40;1.38;;;;;;;;;;5034989;28;20032;-62
2022/04/08 03:26:59;;;;;;;2.35;1.20;;;;;;;;;;5034867;28;20033;-62
2022/04/08 03:29:25;;;;;;;4.13;1.35;;;;;;;;;;5034834;28;20068;-61
2022/04/08 03:31:50;;;;;;;0.98;0.80;;;;;;;;;;5034853;28;20494;-62
2022/04/08 03:34:16;;;;;;;6.43;1.02;;;;;;;;;;5034608;28;20028;-61
2022/04/08 03:36:41;;;;;;;1.73;1.02;;;;;;;;;;5034686;28;20116;-61
2022/04/08 03:39:09;;;;;;;4.32;2.60;;;;;;;;;;5034630;28;20030;-62
2022/04/08 03:41:34;;;;;;;6.95;2.15;;;;;;;;;;5034690;28;20068;-62
2022/04/08 03:44:00;;;;;;;8.80;1.33;;;;;;;;;;5034532;28;20479;-62
2022/04/08 03:46:26;;;;;;;3.75;1.10;;;;;;;;;;5034651;28;20057;-62
2022/04/08 03:48:51;;;;;;;4.88;1.20;;;;;;;;;;5034403;28;20017;-62
2022/04/08 03:51:17;;;;;;;5.82;2.50;;;;;;;;;;5034526;28;20064;-62
2022/04/08 03:53:42;;;;;;;3.28;1.67;;;;;;;;;;5034457;28;20078;-62
2022/04/08 03:56:08;;;;;;;3.88;2.05;;;;;;;;;;5034480;28;20033;-62
2022/04/08 03:58:33;;;;;;;5.50;1.67;;;;;;;;;;5034333;28;20025;-62
2022/04/08 04:00:59;;;;;;;2.35;1.17;;;;;;;;;;5034269;28;20036;-62
2022/04/08 04:03:25;;;;;;;1.00;0.90;;;;;;;;;;5034034;28;20032;-62
2022/04/08 04:05:50;;;;;;;3.70;1.30;;;;;;;;;;5034118;28;20029;-62
2022/04/08 04:08:18;;;;;;;1.98;1.10;;;;;;;;;;5034128;28;20065;-62
2022/04/08 04:10:48;;;;;;;1.13;0.77;;;;;;;;;;5034310;28;20053;-62
2022/04/08 04:13:14;;;;;;;2.85;1.05;;;;;;;;;;5034088;28;20494;-62
2022/04/08 04:15:40;;;;;;;3.53;1.63;;;;;;;;;;5033974;28;20058;-62
2022/04/08 04:18:05;;;;;;;2.13;1.23;;;;;;;;;;5033715;28;20061;-62
2022/04/08 04:20:31;;;;;;;4.55;1.40;;;;;;;;;;5033590;28;20042;-62
2022/04/08 04:22:57;;;;;;;5.25;1.52;;;;;;;;;;5033836;28;20550;-62
2022/04/08 04:25:22;;;;;;;1.80;0.90;;;;;;;;;;5033858;28;20025;-62
2022/04/08 04:27:49;;;;;;;2.30;1.27;;;;;;;;;;5033771;28;20052;-62
2022/04/08 04:30:14;;;;;;;2.28;1.02;;;;;;;;;;5033588;28;20097;-62
2022/04/08 04:32:40;;;;;;;4.10;1.85;;;;;;;;;;5032623;28;20498;-62
2022/04/08 04:35:06;;;;;;;3.33;1.10;;;;;;;;;;5033717;28;20053;-62
2022/04/08 04:37:36;;;;;;;1.40;0.65;;;;;;;;;;5033509;28;20029;-62
2022/04/08 04:40:03;;;;;;;2.40;1.25;;;;;;;;;;5033420;28;20052;-62
2022/04/08 04:42:29;;;;;;;1.25;1.02;;;;;;;;;;5033443;28;20036;-62
2022/04/08 04:44:55;;;;;;;2.08;1.27;;;;;;;;;;5033329;28;20530;-61
2022/04/08 04:47:21;;;;;;;2.63;1.15;;;;;;;;;;5033328;28;20374;-62
2022/04/08 04:49:47;;;;;;;5.43;1.00;;;;;;;;;;5033446;28;20323;-62
2022/04/08 04:52:12;;;;;;;2.15;1.00;;;;;;;;;;5033351;28;20083;-62
2022/04/08 04:54:38;;;;;;;2.47;1.17;;;;;;;;;;5033420;28;20075;-62
2022/04/08 04:57:04;;;;;;;2.53;1.42;;;;;;;;;;5033411;28;20030;-63
2022/04/08 04:59:29;;;;;;;3.45;1.60;;;;;;;;;;5033200;28;20418;-63
2022/04/08 05:01:55;;;;;;;4.68;1.23;;;;;;;;;;5032897;28;20018;-63
2022/04/08 05:04:20;;;;;;;3.13;1.63;;;;;;;;;;5033135;28;20029;-62
2022/04/08 05:06:46;;;;;;;2.00;0.98;;;;;;;;;;5033085;28;20379;-63
2022/04/08 05:09:11;;;;;;;4.47;1.75;;;;;;;;;;5033070;28;20112;-63
2022/04/08 05:11:37;;;;;;;4.03;1.40;;;;;;;;;;5033127;28;20026;-63
2022/04/08 05:14:02;;;;;;;5.10;1.90;;;;;;;;;;5033080;28;20029;-63
2022/04/08 05:16:29;;;;;;;3.63;1.38;;;;;;;;;;5032847;28;20025;-63
2022/04/08 05:18:55;;;;;;;4.82;1.77;;;;;;;;;;5032507;28;20033;-63
2022/04/08 05:21:21;;;;;;;4.90;1.90;;;;;;;;;;5032891;28;20037;-63
2022/04/08 05:23:47;;;;;;;2.55;1.27;;;;;;;;;;5032915;28;20024;-62
2022/04/08 05:26:13;;;;;;;2.55;1.23;;;;;;;;;;5031516;28;20386;-63
2022/04/08 05:28:39;;;;;;;4.95;2.20;;;;;;;;;;5032776;28;20060;-63
2022/04/08 05:31:04;;;;;;;6.05;1.90;;;;;;;;;;5032458;28;20060;-62
2022/04/08 05:33:30;;;;;;;5.55;2.05;;;;;;;;;;5032685;28;20037;-62
2022/04/08 05:35:55;;;;;;;3.83;1.35;;;;;;;;;;5032855;28;20037;-62
2022/04/08 05:38:20;;;;;;;3.30;1.60;;;;;;;;;;5032700;28;20108;-63
2022/04/08 05:40:46;;;;;;;4.28;1.60;;;;;;;;;;5032798;28;20383;-62
2022/04/08 05:43:12;;;;;;;6.28;1.80;;;;;;;;;;5033326;28;20029;-62
2022/04/08 05:45:38;;;;;;;6.18;1.63;;;;;;;;;;5036564;28;20083;-63
2022/04/08 05:48:05;;;;;;;3.75;0.98;;;;;;;;;;5036752;28;20017;-62
2022/04/08 05:50:30;;;;;;;5.68;1.85;;;;;;;;;;5036793;28;20068;-63
2022/04/08 05:52:56;;;;;;;5.82;1.77;;;;;;;;;;5036639;28;20045;-62
2022/04/08 05:55:21;;;;;;;11.65;1.67;;;;;;;;;;5036592;28;20541;-62
2022/04/08 05:57:47;;;;;;;4.95;1.50;;;;;;;;;;5036685;28;20359;-63
2022/04/08 06:00:14;;;;;;;7.97;1.90;;;;;;;;;;5036253;28;20091;-63
2022/04/08 06:02:43;;;;;;;6.75;2.28;;;;;;;;;;5036475;28;20037;-63
2022/04/08 06:05:09;;;;;;;5.00;1.67;;;;;;;;;;5036371;28;20441;-63
2022/04/08 06:07:35;;;;;;;2.97;1.42;;;;;;;;;;5036497;28;20026;-63
2022/04/08 06:10:03;;;;;;;5.07;1.45;;;;;;;;;;5036530;28;20471;-63
2022/04/08 06:12:28;;;;;;;4.45;1.27;;;;;;;;;;5036486;28;20459;-62
2022/04/08 06:14:55;;;;;;;6.82;1.30;;;;;;;;;;5036238;28;20029;-63
2022/04/08 06:17:20;;;;;;;5.00;1.48;;;;;;;;;;5036369;28;20061;-62
2022/04/08 06:19:48;;;;;;;9.20;1.58;;;;;;;;;;5035712;28;20076;-62
2022/04/08 06:22:13;;;;;;;4.93;1.35;;;;;;;;;;5035993;28;20025;-62
2022/04/08 06:24:39;;;;;;;2.75;1.35;;;;;;;;;;5036170;28;20126;-63
2022/04/08 06:27:05;;;;;;;5.85;1.98;;;;;;;;;;5036052;28;20475;-63
2022/04/08 06:29:31;;;;;;;7.60;2.03;;;;;;;;;;5035815;28;20029;-63
2022/04/08 06:31:56;;;;;;;8.95;2.53;;;;;;;;;;5035996;28;20036;-63
2022/04/08 06:34:22;;;;;;;2.00;1.27;;;;;;;;;;5036029;28;20463;-63
2022/04/08 06:36:47;;;;;;;10.93;2.97;;;;;;;;;;5035977;28;20025;-63
2022/04/08 06:39:13;;;;;;;8.48;2.35;;;;;;;;;;5036088;28;20076;-63
2022/04/08 06:41:38;;;;;;;6.95;2.05;;;;;;;;;;5035643;28;20025;-63
2022/04/08 06:44:04;;;;;;;9.50;3.55;;;;;;;;;;5035593;28;20053;-63
2022/04/08 06:46:29;;;;;;;7.88;2.67;;;;;;;;;;5035787;28;20045;-63
2022/04/08 06:48:56;;;;;;;11.70;2.15;;;;;;;;;;5035652;28;20021;-63
2022/04/08 06:51:22;;;;;;;8.55;2.35;;;;;;;;;;5035724;28;20100;-63
2022/04/08 06:53:47;;;;;;;8.25;2.80;;;;;;;;;;5035300;28;20448;-63
2022/04/08 06:56:13;;;;;;;7.68;2.03;;;;;;;;;;5034523;28;20056;-63
2022/04/08 06:58:39;;;;;;;4.80;1.70;;;;;;;;;;5035485;28;20474;-63
2022/04/08 07:01:06;;;;;;;11.60;3.22;;;;;;;;;;5035481;28;20375;-63
2022/04/08 07:03:31;;;;;;;3.50;1.58;;;;;;;;;;5035408;28;20522;-62
2022/04/08 07:05:57;;;;;;;4.82;1.30;;;;;;;;;;5035170;28;20116;-63
2022/04/08 07:08:22;;;;;;;6.13;1.55;;;;;;;;;;5034977;28;20471;-63
2022/04/08 07:10:48;;;;;;;3.67;1.20;;;;;;;;;;5034985;28;20029;-63
2022/04/08 07:13:13;;;;;;;7.57;1.90;;;;;;;;;;5035019;28;20029;-63
2022/04/08 07:15:39;;;;;;;4.13;1.95;;;;;;;;;;5035128;28;20538;-63
2022/04/08 07:18:05;;;;;;;5.35;1.73;;;;;;;;;;5035022;28;20033;-63
2022/04/08 07:20:31;;;;;;;6.50;1.90;;;;;;;;;;5034669;28;20495;-63
2022/04/08 07:23:01;;;;;;;5.97;2.55;;;;;;;;;;5027848;28;20036;-63
2022/04/08 07:25:27;;;;;;;;;;;;;;;;;;5032223;28;20021;-62
2022/04/08 07:27:55;;;;;;;11.40;2.00;;;;;;;;;;5033382;28;19917;-62
2022/04/08 07:30:22;;;;;;;10.30;2.70;;;;;;;;;;5033513;28;20017;-62
2022/04/08 07:32:52;;;;;;;8.63;2.30;;;;;;;;;;5023336;28;20037;-63
2022/04/08 07:35:18;;;;;;;12.47;2.27;;;;;;;;;;5023595;28;20065;-62
2022/04/08 07:37:44;;;;;;;9.20;2.90;;;;;;;;;;5033849;28;20467;-63
2022/04/08 07:40:11;;;;;;;8.88;2.15;;;;;;;;;;5033559;28;20040;-62
2022/04/08 07:42:37;;;;;;;11.35;2.20;;;;;;;;;;5034273;28;20374;-62
2022/04/08 07:45:04;;;;;;;6.82;1.83;;;;;;;;;;5033790;28;20526;-62
2022/04/08 07:47:30;;;;;;;9.55;2.70;;;;;;;;;;5034568;28;20108;-62
2022/04/08 07:50:14;;;;;;;9.05;2.13;;;;;;;;;;5034432;28;20040;-62
2022/04/08 07:52:41;;;;;;;8.20;2.10;;;;;;;;;;5034143;28;20431;-63
2022/04/08 07:55:07;;;;;;;12.68;3.00;;;;;;;;;;5033901;28;20075;-62
2022/04/08 07:57:33;;;;;;;10.90;2.10;;;;;;;;;;5034017;28;20044;-62
2022/04/08 07:59:59;;;;;;;7.10;2.50;;;;;;;;;;5033971;28;20025;-62
2022/04/08 08:02:26;;;;;;;10.85;2.85;;;;;;;;;;5034121;28;20049;-62
2022/04/08 08:04:52;;;;;;;10.80;2.95;;;;;;;;;;5034006;28;20031;-62
2022/04/08 08:07:18;;;;;;;13.52;3.45;;;;;;;;;;5033737;28;20026;-63
2022/04/08 08:09:44;;;;;;;11.18;1.83;;;;;;;;;;5033685;28;20032;-62
2022/04/08 08:12:09;;;;;;;6.25;1.50;;;;;;;;;;5033575;28;20039;-62
2022/04/08 08:14:35;;;;;;;8.57;2.15;;;;;;;;;;5033826;28;20083;-63
2022/04/08 08:17:01;;;;;;;6.43;1.80;;;;;;;;;;5033741;28;20056;-62
2022/04/08 08:19:28;;;;;;;8.63;2.10;;;;;;;;;;5033343;28;20057;-62
2022/04/08 08:21:53;;;;;;;9.77;1.92;;;;;;;;;;5039080;28;20028;-62
2022/04/08 08:24:19;;;;;;;8.05;1.90;;;;;;;;;;5032693;28;20025;-62
2022/04/08 08:26:44;;;;;;;11.25;2.70;;;;;;;;;;5033374;28;20036;-63
2022/04/08 08:29:10;;;;;;;11.52;3.40;;;;;;;;;;5033389;28;20077;-62
2022/04/08 08:31:35;;;;;;;6.10;2.05;;;;;;;;;;5032838;28;20536;-62
2022/04/08 08:34:01;;;;;;;5.82;1.75;;;;;;;;;;5032701;28;20459;-63
2022/04/08 08:36:26;;;;;;;8.02;1.83;;;;;;;;;;5031397;28;20059;-62
2022/04/08 08:38:52;;;;;;;8.65;1.95;;;;;;;;;;5032820;28;20021;-62
2022/04/08 08:41:23;;;;;;;8.55;1.80;;;;;;;;;;5022229;28;20025;-63
2022/04/08 08:43:52;;;;;;;9.10;2.05;;;;;;;;;;5030696;28;20032;-63
2022/04/08 08:46:18;;;;;;;6.13;2.15;;;;;;;;;;5032624;28;20490;-62
2022/04/08 08:48:45;;;;;;;6.88;2.13;;;;;;;;;;5032950;28;20021;-61
2022/04/08 08:51:13;;;;;;;7.22;1.70;;;;;;;;;;5032926;28;20078;-62
2022/04/08 08:53:38;;;;;;;11.52;2.30;;;;;;;;;;5032836;28;20022;-62
2022/04/08 08:56:05;;;;;;;4.05;1.35;;;;;;;;;;5032941;28;20041;-62
2022/04/08 08:58:34;;;;;;;7.97;1.95;;;;;;;;;;5032808;28;20031;-62
2022/04/08 09:00:59;;;;;;;6.43;2.55;;;;;;;;;;5032928;28;20112;-62
2022/04/08 09:03:29;;;;;;;9.43;2.28;;;;;;;;;;5032945;28;20112;-61
2022/04/08 09:06:04;;;;;;;7.75;2.80;;;;;;;;;;5032918;28;20033;-62
2022/04/08 09:08:34;;;;;;;10.82;4.28;;;;;;;;;;5026999;28;20379;-63
2022/04/08 09:11:00;;;;;;;9.30;2.22;;;;;;;;;;5032319;28;20609;-62
2022/04/08 09:13:28;;;;;;;10.70;2.80;;;;;;;;;;5032906;28;20041;-63
2022/04/08 09:15:56;;;;;;;8.63;1.42;;;;;;;;;;5032711;28;20113;-62
2022/04/08 09:18:22;;;;;;;9.38;2.33;;;;;;;;;;5032442;28;20029;-63
2022/04/08 09:20:49;;;;;;;10.50;2.55;;;;;;;;;;5018721;28;20034;-62
2022/04/08 09:23:18;;;;;;;4.00;2.15;;;;;;;;;;5032398;28;20037;-63
2022/04/08 09:25:44;;;;;;;7.57;1.90;;;;;;;;;;5032531;28;20021;-62
2022/04/08 09:28:15;;;;;;;8.63;2.10;;;;;;;;;;5032472;28;20034;-62
2022/04/08 09:30:52;;;;;;;6.38;1.58;;;;;;;;;;5032737;28;20036;-63
2022/04/08 09:33:19;;;;;;;7.72;1.95;;;;;;;;;;5032913;28;20025;-63
2022/04/08 09:35:46;;;;;;;6.72;1.83;;;;;;;;;;5032782;28;20425;-62
2022/04/08 09:38:11;;;;;;;6.20;1.80;;;;;;;;;;5032537;28;20052;-61
2022/04/08 09:40:44;;;;;;;5.15;1.38;;;;;;;;;;5032523;28;20467;-61
2022/04/08 09:43:12;;;;;;;8.73;2.08;;;;;;;;;;5032627;28;20487;-62
2022/04/08 09:45:38;;;;;;;8.98;1.90;;;;;;;;;;5032495;28;20494;-62
2022/04/08 09:48:06;;;;;;;7.53;1.70;;;;;;;;;;5032077;28;20072;-62
2022/04/08 09:50:33;;;;;;;7.60;2.13;;;;;;;;;;5032271;28;20025;-62
2022/04/08 09:52:59;;;;;;;11.02;2.40;;;;;;;;;;5032240;28;20087;-62
2022/04/08 09:55:25;;;;;;;3.97;1.23;;;;;;;;;;5032275;28;20029;-63
2022/04/08 09:57:59;;;;;;;6.05;2.47;;;;;;;;;;5032380;28;20390;-63
2022/04/08 10:00:27;;;;;;;8.73;2.45;;;;;;;;;;5032117;28;20391;-63
2022/04/08 10:02:54;;;;;;;6.70;1.77;;;;;;;;;;5032295;28;20044;-63
2022/04/08 10:05:22;;;;;;;7.20;2.38;;;;;;;;;;5031716;28;20033;-63
2022/04/08 10:07:52;;;;;;;4.13;1.52;;;;;;;;;;5032096;28;20028;-63
2022/04/08 10:10:23;;;;;;;7.57;1.47;;;;;;;;;;5032428;28;20032;-63
2022/04/08 10:12:54;;;;;;;6.43;1.23;;;;;;;;;;5031892;28;20346;-63
2022/04/08 10:15:27;;;;;;;6.50;1.33;;;;;;;;;;5032168;28;20491;-61
2022/04/08 10:18:00;;;;;;;6.80;1.38;;;;;;;;;;5032324;28;20021;-62
2022/04/08 10:20:28;;;;;;;6.63;1.95;;;;;;;;;;5031396;28;20513;-61
2022/04/08 10:23:12;;;;;;;3.92;1.70;;;;;;;;;;5031750;28;20032;-61
2022/04/08 10:25:42;;;;;;;5.75;1.77;;;;;;;;;;5031980;28;20026;-61
2022/04/08 10:28:09;;;;;;;7.57;2.00;;;;;;;;;;5031853;28;20056;-63
2022/04/08 10:30:43;;;;;;;4.10;1.42;;;;;;;;;;5033305;28;20104;-63
2022/04/08 10:33:09;;;;;;;7.32;1.52;;;;;;;;;;5035138;28;20051;-63
2022/04/08 10:35:37;;;;;;;5.55;1.40;;;;;;;;;;5035401;28;20025;-63
2022/04/08 10:38:07;;;;;;;5.68;1.60;;;;;;;;;;5035468;28;20072;-63
2022/04/08 10:40:37;;;;;;;9.05;2.47;;;;;;;;;;5035420;28;20017;-63
2022/04/08 10:43:08;;;;;;;5.10;1.65;;;;;;;;;;5035454;28;20096;-63
2022/04/08 10:45:35;;;;;;;6.43;1.67;;;;;;;;;;5029450;28;20022;-62
2022/04/08 10:48:21;;;;;;;5.78;1.23;;;;;;;;;;5021326;28;20022;-60
2022/04/08 10:50:47;;;;;;;3.67;2.00;;;;;;;;;;5034961;28;20045;-62
2022/04/08 10:53:24;;;;;;;5.85;1.77;;;;;;;;;;5034462;28;20043;-61
2022/04/08 10:55:55;;;;;;;5.00;1.90;;;;;;;;;;5034574;28;20034;-63
2022/04/08 10:58:39;;;;;;;3.38;1.42;;;;;;;;;;5035096;28;20036;-62
2022/04/08 11:01:14;;;;;;;5.45;1.58;;;;;;;;;;5035144;28;20026;-63
2022/04/08 11:03:44;;;;;;;3.83;1.30;;;;;;;;;;5035268;28;20032;-61
2022/04/08 11:06:10;;;;;;;7.68;2.10;;;;;;;;;;5035016;28;20540;-63
2022/04/08 11:08:36;;;;;;;4.15;1.60;;;;;;;;;;5035008;28;20042;-62
2022/04/08 11:11:02;;;;;;;5.35;1.25;;;;;;;;;;5034847;28;20021;-64
2022/04/08 11:13:27;;;;;;;8.48;1.90;;;;;;;;;;5035005;28;20033;-62
2022/04/08 11:15:53;;;;;;;11.10;1.40;;;;;;;;;;5035081;28;20037;-62
2022/04/08 11:18:19;;;;;;;4.15;1.20;;;;;;;;;;5034638;28;20022;-62
2022/04/08 11:20:49;;;;;;;9.40;1.33;;;;;;;;;;5034487;28;20038;-62
2022/04/08 11:23:24;;;;;;;6.57;1.10;;;;;;;;;;5035120;28;20367;-61
2022/04/08 11:25:49;;;;;;;5.03;1.35;;;;;;;;;;5034571;28;20474;-63
2022/04/08 11:28:16;;;;;;;5.32;1.42;;;;;;;;;;5034566;28;20152;-63
2022/04/08 11:30:42;;;;;;;9.70;1.35;;;;;;;;;;5034872;28;20029;-62
2022/04/08 11:33:17;;;;;;;174.50;68.05;;;;;;;;;;5034248;28;20466;-62
2022/04/08 11:35:45;;;;;;;7.90;2.50;;;;;;;;;;5034542;28;20033;-61
2022/04/08 11:38:18;;;;;;;6.63;1.98;;;;;;;;;;5034479;28;20397;-61
2022/04/08 11:40:45;;;;;;;32.08;13.68;;;;;;;;;;5031972;28;20426;-61
2022/04/08 11:43:15;;;;;;;3.55;1.48;;;;;;;;;;5033329;28;20053;-62
2022/04/08 11:45:41;;;;;;;4.57;1.40;;;;;;;;;;5034339;28;20034;-61
2022/04/08 11:48:10;;;;;;;5.45;1.70;;;;;;;;;;5034063;28;20031;-62
2022/04/08 11:50:40;;;;;;;3.88;1.30;;;;;;;;;;5034479;28;20029;-63
2022/04/08 11:53:14;;;;;;;3.08;1.20;;;;;;;;;;5034453;28;20390;-63
2022/04/08 11:55:50;;;;;;;5.85;1.35;;;;;;;;;;5034431;28;20029;-62
2022/04/08 11:58:19;;;;;;;1.92;0.98;;;;;;;;;;5034253;28;20048;-64
2022/04/08 12:00:49;;;;;;;4.43;1.30;;;;;;;;;;5034218;28;20036;-64
2022/04/08 12:03:38;;;;;;;6.22;1.00;;;;;;;;;;5034055;28;20021;-63
2022/04/08 12:06:04;;;;;;;1.40;0.70;;;;;;;;;;5034002;28;20041;-63
2022/04/08 12:08:30;;;;;;;5.47;1.10;;;;;;;;;;5033914;28;20035;-64
2022/04/08 12:10:58;;;;;;;2.80;1.10;;;;;;;;;;5033969;28;20022;-63
2022/04/08 12:13:25;;;;;;;4.80;1.10;;;;;;;;;;5034033;28;20025;-63
2022/04/08 12:15:57;;;;;;;2.25;0.90;;;;;;;;;;5033666;28;20029;-63
2022/04/08 12:18:28;;;;;;;3.05;1.00;;;;;;;;;;5033695;28;20364;-63
2022/04/08 12:20:57;;;;;;;3.47;1.13;;;;;;;;;;5020645;28;20102;-64
2022/04/08 12:23:25;;;;;;;2.75;1.27;;;;;;;;;;5033892;28;20471;-63
2022/04/08 12:25:59;;;;;;;5.28;1.27;;;;;;;;;;5033536;28;20045;-62
2022/04/08 12:28:28;;;;;;;3.38;1.23;;;;;;;;;;5033730;28;20022;-62
2022/04/08 12:30:54;;;;;;;2.03;0.80;;;;;;;;;;5033570;28;20036;-63
2022/04/08 12:33:19;;;;;;;3.35;1.10;;;;;;;;;;5033773;28;20029;-63
2022/04/08 12:35:46;;;;;;;2.80;0.80;;;;;;;;;;5033291;28;20033;-64
2022/04/08 12:38:14;;;;;;;4.60;1.02;;;;;;;;;;5033599;28;20025;-63
2022/04/08 12:40:40;;;;;;;2.75;1.45;;;;;;;;;;5033608;28;20029;-62
2022/04/08 12:43:06;;;;;;;2.20;0.90;;;;;;;;;;5033114;28;20021;-63
2022/04/08 12:45:32;;;;;;;1.42;0.70;;;;;;;;;;5033111;28;20076;-62
2022/04/08 12:47:57;;;;;;;2.38;1.00;;;;;;;;;;5033187;28;20080;-62
2022/04/08 12:50:23;;;;;;;3.75;1.10;;;;;;;;;;5019322;28;20035;-59
2022/04/08 12:52:49;;;;;;;4.40;0.90;;;;;;;;;;5031945;28;20040;-62
2022/04/08 12:55:15;;;;;;;1.80;0.80;;;;;;;;;;5033264;28;20025;-63
2022/04/08 12:57:41;;;;;;;2.05;0.80;;;;;;;;;;5032103;28;20025;-64
2022/04/08 13:00:11;;;;;;;3.97;0.90;;;;;;;;;;5033159;28;20057;-61
2022/04/08 13:02:38;;;;;;;;;;;;;;;;;;5031433;28;20029;-64
2022/04/08 13:05:04;;;;;;;3.17;0.93;;;;;;;;;;5030070;28;20443;-64
2022/04/08 13:07:29;;;;;;;2.25;0.80;;;;;;;;;;5028618;28;20029;-63
2022/04/08 13:09:55;;;;;;;4.78;0.75;;;;;;;;;;5027344;28;20030;-63
2022/04/08 13:12:20;;;;;;;2.28;1.20;;;;;;;;;;5048412;28;20104;-63
2022/04/08 13:14:47;;;;;;;2.35;0.95;;;;;;;;;;5035902;28;20020;-64
2022/04/08 13:17:12;;;;;;;4.03;1.23;;;;;;;;;;5046269;28;20026;-60
2022/04/08 13:19:38;;;;;;;2.80;0.93;;;;;;;;;;5042129;28;20052;-61
2022/04/08 13:22:04;;;;;;;3.28;0.90;;;;;;;;;;5047722;28;20029;-61
2022/04/08 13:24:30;;;;;;;1.63;0.70;;;;;;;;;;5035947;28;20029;-61
2022/04/08 13:26:56;;;;;;;1.20;0.75;;;;;;;;;;5048224;28;20017;-61
2022/04/08 13:29:21;;;;;;;5.35;1.42;;;;;;;;;;5039825;28;20090;-62
2022/04/08 13:31:47;;;;;;;2.42;1.13;;;;;;;;;;5041442;28;20459;-64
2022/04/08 13:34:12;;;;;;;2.47;0.95;;;;;;;;;;5046907;28;20021;-61
2022/04/08 13:36:38;;;;;;;2.83;1.05;;;;;;;;;;5035783;28;20021;-61
2022/04/08 13:39:03;;;;;;;4.43;1.30;;;;;;;;;;5047160;28;20054;-62
2022/04/08 13:41:29;;;;;;;4.10;0.90;;;;;;;;;;5041076;28;20370;-62
2022/04/08 13:43:55;;;;;;;3.13;1.45;;;;;;;;;;5039934;28;20034;-61
2022/04/08 13:46:20;;;;;;;3.30;0.90;;;;;;;;;;5048075;28;20031;-62
2022/04/08 13:48:46;;;;;;;1.60;0.70;;;;;;;;;;5035699;28;20063;-62
2022/04/08 13:51:11;;;;;;;2.35;0.95;;;;;;;;;;5052203;28;20025;-60
2022/04/08 13:53:37;;;;;;;1.63;0.90;;;;;;;;;;5042842;28;20079;-62
2022/04/08 13:56:03;;;;;;;3.35;1.10;;;;;;;;;;5031155;28;20072;-64
2022/04/08 13:58:28;;;;;;;3.28;0.80;;;;;;;;;;5030507;28;20089;-62
2022/04/08 14:00:54;;;;;;;0.93;0.60;;;;;;;;;;5031226;28;20033;-61
2022/04/08 14:03:19;;;;;;;3.58;1.15;;;;;;;;;;5032342;28;20445;-62
2022/04/08 14:05:45;;;;;;;2.47;0.90;;;;;;;;;;5035593;28;20030;-62
2022/04/08 14:08:12;;;;;;;4.53;1.42;;;;;;;;;;5036478;28;20120;-62
2022/04/08 14:10:38;;;;;;;2.00;1.00;;;;;;;;;;5036504;28;20022;-61
2022/04/08 14:13:06;;;;;;;5.78;2.35;;;;;;;;;;5036093;28;20021;-63
2022/04/08 14:15:32;;;;;;;6.68;1.35;;;;;;;;;;5035874;28;20030;-62
2022/04/08 14:17:57;;;;;;;3.08;0.90;;;;;;;;;;5035581;28;20378;-63
2022/04/08 14:20:23;;;;;;;2.42;0.90;;;;;;;;;;5035668;28;20093;-63
2022/04/08 14:22:49;;;;;;;2.53;0.90;;;;;;;;;;5034900;28;20506;-62
2022/04/08 14:25:15;;;;;;;2.95;0.88;;;;;;;;;;5035916;28;20033;-62
2022/04/08 14:27:40;;;;;;;3.45;1.00;;;;;;;;;;5035501;28;20399;-63
2022/04/08 14:30:07;;;;;;;3.30;0.82;;;;;;;;;;5036213;28;20057;-63
2022/04/08 14:32:36;;;;;;;3.53;0.98;;;;;;;;;;5035803;28;20429;-62
2022/04/08 14:35:03;;;;;;;0.75;0.65;;;;;;;;;;5035827;28;20078;-63
2022/04/08 14:37:30;;;;;;;2.15;1.00;;;;;;;;;;5035689;28;20028;-62
2022/04/08 14:39:56;;;;;;;2.30;0.90;;;;;;;;;;5035748;28;20104;-61
2022/04/08 14:42:22;;;;;;;6.60;1.02;;;;;;;;;;5035558;28;20022;-63